Aérodrome :
LOGIN :

S'inscrire | Disclaimer

   EN    FR    IT 

 










Légende :    VFR   VFR Marginal   IFR   IFR Intensif   IFR Très Intensif
Visi : 
Plafond : 
>= 8 km
>= 3000ft
5 à 8 km
1000 à 3000 ft
1500m à 5 km
500 à 1000 ft
800 à 1500m
200 à 500 ft
< 800m
< 200 ft
Symboles :   Orages  Brouillard  Fortes neiges  Fortes précipitations  Vent > 20 kt
SIGMETs :   Divers  Orages  Givrage  Turbulence  Onde Orograph.  Cendres Volcan.






- Altitude de l'aérodrome : 13 ft
- Code IATA : CEQ


LFMD - Cannes Mandelieu

DERNIER METAR :
  • 152130Z AUTO 27016KT 240V300 CAVOK 17/07 Q1012

METARs EXPIRÉS :
  • 152100Z AUTO 27013G23KT 230V300 CAVOK 17/08 Q1012 NOSIG
  • 152030Z AUTO 27014KT 230V290 CAVOK 17/07 Q1012 NOSIG
  • 152000Z AUTO 27016KT 230V290 CAVOK 18/08 Q1011 TEMPO 26015G25KT
  • 151930Z AUTO 28015KT 250V320 CAVOK 18/08 Q1011 TEMPO 26015G25KT
  • 151900Z AUTO 27016KT 240V300 CAVOK 18/09 Q1011 TEMPO 26015G25KT
  • 151830Z AUTO 27015G25KT 240V300 CAVOK 18/09 Q1011 NOSIG

TAF TAF LFMD
Valide du 15 à 15h jusqu'au 16 à 15h UTC


151400Z 1515/1615 26012KT CAVOK
TEMPO 1515/1521 26015G25KT
BECMG 1600/1603 36006KT
PROB40
TEMPO 1603/1608 BKN014
BECMG 1609/1611 20010KT
ATIS : +33 4 93 48 73 23



MET'MAP, la Météo Aéronautique d'un coup d'oeil ! - Copyright ORBIFLY Décembre 2007 - Disclaimer

ORBIFLY MET'MAP TEAM :

Programmation & Développement : Alexandra Zaïnal
Conception & Développement : Baudouin d'Aumeries
Co-Programmation & Développement : Marc-Olivier Méhu
Soutien technique & logistique : Manuel Goepfert

Contact : metmap@orbifly.com




SOURCES & CREDITS :

   NOAA